createdAt,value
2024-05-09T10:15:34.391Z,51.9
2024-05-09T10:17:17.014Z,52
2024-05-09T10:19:00.511Z,52.1
2024-05-09T10:20:44.106Z,52.2
2024-05-09T10:22:27.849Z,52.4
2024-05-09T10:24:11.549Z,52.5
2024-05-09T10:25:55.141Z,52.6
2024-05-09T10:27:38.861Z,52.7
2024-05-09T10:29:22.781Z,52.8
2024-05-09T10:31:06.326Z,52.9
2024-05-09T10:32:50.078Z,52.8
2024-05-09T10:34:33.881Z,52.7
2024-05-09T10:36:18.025Z,52.7
2024-05-09T10:38:01.129Z,51.4
2024-05-09T10:39:44.811Z,52
2024-05-09T10:41:28.555Z,52.5
2024-05-09T10:43:12.176Z,52.4
2024-05-09T10:44:55.867Z,52.3
2024-05-09T10:46:39.627Z,52.2
2024-05-09T10:48:23.384Z,52.1
2024-05-09T10:50:06.988Z,52
2024-05-09T10:51:50.699Z,52.1
2024-05-09T10:53:34.423Z,52.2
2024-05-09T10:55:18.165Z,52.3
2024-05-09T10:57:02.112Z,52.4
2024-05-09T10:58:45.504Z,52.5
2024-05-09T11:00:29.223Z,52.7
2024-05-09T11:02:12.904Z,52.8
2024-05-09T11:03:56.631Z,52.9
2024-05-09T11:05:40.313Z,53
2024-05-09T11:07:24.010Z,53
2024-05-09T11:09:07.714Z,53.2
2024-05-09T11:10:51.419Z,53.3
2024-05-09T11:12:35.117Z,53.2
2024-05-09T11:14:18.857Z,53.1
2024-05-09T11:16:02.706Z,53.3
2024-05-09T11:17:46.225Z,53.5
2024-05-09T11:19:29.915Z,53.6
2024-05-09T11:21:13.680Z,53.8
2024-05-09T11:22:57.344Z,54
2024-05-09T11:24:41.069Z,53.9
2024-05-09T11:26:24.857Z,53.8
2024-05-09T11:28:08.457Z,53.6
2024-05-09T11:29:52.136Z,53.6
2024-05-09T11:31:35.832Z,53.5
2024-05-09T11:33:19.527Z,53.4
2024-05-09T11:35:03.229Z,53.3
2024-05-09T11:36:46.940Z,53.3
2024-05-09T11:38:30.645Z,53.2
2024-05-09T11:40:14.328Z,53.2
2024-05-09T11:41:58.192Z,53.2
2024-05-09T11:43:41.747Z,53.2
2024-05-09T11:45:25.475Z,53.2
2024-05-09T11:47:09.151Z,53.4
2024-05-09T11:48:52.882Z,53.5
2024-05-09T11:50:36.556Z,53.6
2024-05-09T11:52:20.255Z,53.6
2024-05-09T11:54:03.964Z,53.6
2024-05-09T11:55:47.698Z,53.6
2024-05-09T11:57:31.591Z,53.6
2024-05-09T11:59:15.070Z,53.7
2024-05-09T12:00:58.831Z,53.8
2024-05-09T12:02:42.475Z,54
2024-05-09T12:04:26.185Z,54.1
2024-05-09T12:06:09.907Z,54.2
2024-05-09T12:07:53.580Z,54.2
2024-05-09T12:09:37.274Z,54
2024-05-09T12:11:20.988Z,53.8
2024-05-09T12:13:04.695Z,53.7
2024-05-09T12:14:48.387Z,53.6
2024-05-09T12:16:32.075Z,53.6
2024-05-09T12:18:15.809Z,53.6
2024-05-09T12:19:59.543Z,53.6
2024-05-09T12:21:43.192Z,53.7
2024-05-09T12:23:26.880Z,53.8
2024-05-09T12:25:10.584Z,54
2024-05-09T12:26:54.303Z,54.2
2024-05-09T12:28:37.991Z,54.4
2024-05-09T12:30:21.710Z,54.5
2024-05-09T12:32:05.388Z,54.4
2024-05-09T12:33:49.105Z,54.3
2024-05-09T12:35:32.815Z,54.3
2024-05-09T12:37:16.514Z,54.2
2024-05-09T12:39:00.201Z,54.2
2024-05-09T12:40:43.925Z,54.1
2024-05-09T12:42:27.709Z,54
2024-05-09T12:44:11.347Z,54
2024-05-09T12:45:55.003Z,53.9
2024-05-09T12:47:38.714Z,53.8
2024-05-09T12:49:22.485Z,53.8
2024-05-09T12:51:06.155Z,53.8
2024-05-09T12:52:49.819Z,53.7
2024-05-09T12:54:33.517Z,53.7
2024-05-09T12:56:17.288Z,53.7
2024-05-09T12:58:01.030Z,53.7
2024-05-09T12:59:44.713Z,53.7
2024-05-09T13:01:28.354Z,53.6
2024-05-09T13:03:12.022Z,53.6
2024-05-09T13:04:55.727Z,53.6
2024-05-09T13:06:39.432Z,53.6
2024-05-09T13:08:23.218Z,53.6
2024-05-09T13:10:06.822Z,53.8
2024-05-09T13:11:50.558Z,54
2024-05-09T13:13:34.270Z,54.1
2024-05-09T13:15:17.958Z,54.2
2024-05-09T13:17:01.720Z,54.4
2024-05-09T13:18:45.378Z,54.1
2024-05-09T13:20:29.032Z,54.1
2024-05-09T13:22:12.751Z,54.2
2024-05-09T13:23:56.510Z,54.1
2024-05-09T13:25:40.135Z,54.1
2024-05-09T13:27:23.817Z,54
2024-05-09T13:29:07.561Z,54
2024-05-09T13:30:51.247Z,53.9
2024-05-09T13:32:34.953Z,53.9
2024-05-09T13:34:18.655Z,53.9
2024-05-09T13:36:02.388Z,53.9
2024-05-09T13:37:46.039Z,53.9
2024-05-09T13:39:29.736Z,53.9
2024-05-09T13:41:13.424Z,54
2024-05-09T13:42:57.232Z,54.2
2024-05-09T13:44:40.846Z,54.6
2024-05-09T13:46:24.642Z,55.1
2024-05-09T13:48:09.408Z,55
2024-05-09T13:49:51.943Z,54.8
2024-05-09T13:51:35.649Z,54.8
2024-05-09T13:53:19.396Z,55.1
2024-05-09T13:55:03.028Z,55.4
2024-05-09T13:56:46.769Z,55.5
2024-05-09T13:58:30.443Z,55.5
2024-05-09T14:00:14.154Z,55.5
2024-05-09T14:01:57.839Z,55.5
2024-05-09T14:03:41.540Z,55.5
2024-05-09T14:05:25.375Z,55.5
2024-05-09T14:07:08.951Z,55.3
2024-05-09T14:08:52.655Z,55.3
2024-05-09T14:10:36.354Z,55.5
2024-05-09T14:12:20.106Z,55.9
2024-05-09T14:14:03.843Z,56.4
2024-05-09T14:15:47.446Z,56.8
2024-05-09T14:17:31.177Z,57
2024-05-09T14:19:15.008Z,57.3
2024-05-09T14:20:58.667Z,57.5
2024-05-09T14:22:43.105Z,57.6
2024-05-09T14:24:25.951Z,57.4
2024-05-09T14:26:09.788Z,57.7
2024-05-09T14:27:53.362Z,57.8
2024-05-09T14:29:37.075Z,58
2024-05-09T14:31:20.798Z,58.2
2024-05-09T14:33:04.454Z,58.2
2024-05-09T14:34:48.153Z,58.3
2024-05-09T14:36:31.977Z,58.5
2024-05-09T14:38:15.615Z,58.6
2024-05-09T14:39:59.251Z,59.1
2024-05-09T14:41:42.943Z,59.4
2024-05-09T14:43:26.711Z,59.5
2024-05-09T14:45:10.352Z,59.5
2024-05-09T14:46:54.237Z,59.5
2024-05-09T14:48:37.860Z,59.5
2024-05-09T14:50:21.472Z,59.4
2024-05-09T14:52:05.212Z,59.4
2024-05-09T14:53:48.871Z,59.4
2024-05-09T14:55:32.561Z,59.4
2024-05-09T14:57:16.871Z,59.4
2024-05-09T14:59:00.095Z,59.4
2024-05-09T15:00:43.687Z,59.2
2024-05-09T15:02:27.383Z,59
2024-05-09T15:04:11.131Z,59
2024-05-09T15:05:54.988Z,58.8
2024-05-09T15:07:38.493Z,58.7
2024-05-09T15:09:22.304Z,58.7
2024-05-09T15:11:06.019Z,58.6
2024-05-09T15:12:49.618Z,58.5
2024-05-09T15:14:33.285Z,58.5
2024-05-09T15:16:17.017Z,58.6
2024-05-09T15:18:00.712Z,58.6
2024-05-09T15:19:44.417Z,58.7
2024-05-09T15:21:28.116Z,58.6
2024-05-09T15:23:11.827Z,58.5
2024-05-09T15:24:55.489Z,58.7
2024-05-09T15:26:39.219Z,58.8
2024-05-09T15:28:22.919Z,58.9
2024-05-09T15:30:06.590Z,58.9
2024-05-09T15:31:50.287Z,58.9
2024-05-09T15:33:34.003Z,58.8
2024-05-09T15:35:17.681Z,58.8
2024-05-09T15:37:01.392Z,58.9
2024-05-09T15:38:45.100Z,58.8
2024-05-09T15:40:28.792Z,58.6
2024-05-09T15:42:12.511Z,58.7
2024-05-09T15:43:56.246Z,58.8
2024-05-09T15:45:39.900Z,58.8
2024-05-09T15:47:23.643Z,58.8
2024-05-09T15:49:07.288Z,58.8
2024-05-09T15:50:51.105Z,58.8
2024-05-09T15:52:34.731Z,58.8
2024-05-09T15:54:18.517Z,58.5
2024-05-09T15:56:02.333Z,58.5
2024-05-09T15:57:45.824Z,58.6
2024-05-09T15:59:29.497Z,58.6
2024-05-09T16:01:13.214Z,58.6
2024-05-09T16:02:56.912Z,58.6
2024-05-09T16:04:40.718Z,58.7
2024-05-09T16:06:24.378Z,58.7
2024-05-09T16:08:08.059Z,58.7
2024-05-09T16:09:51.730Z,58.7
2024-05-09T16:11:35.403Z,58.7
2024-05-09T16:13:19.228Z,58.7
2024-05-09T16:15:02.888Z,58.7
2024-05-09T16:16:46.619Z,58.6
2024-05-09T16:18:30.250Z,58.6
2024-05-09T16:20:13.926Z,58.7
2024-05-09T16:21:57.606Z,58.7
2024-05-09T16:23:41.377Z,58.7
2024-05-09T16:25:25.106Z,58.6
2024-05-09T16:27:08.826Z,58.6
2024-05-09T16:28:52.426Z,58.7
2024-05-09T16:30:36.241Z,58.7
2024-05-09T16:32:19.811Z,58.7
2024-05-09T16:34:03.523Z,58.7
2024-05-09T16:35:47.277Z,58.8
2024-05-09T16:37:30.931Z,58.8
2024-05-09T16:39:14.683Z,58.8
2024-05-09T16:40:58.330Z,58.9
2024-05-09T16:42:42.015Z,59
2024-05-09T16:44:25.745Z,59.1
2024-05-09T16:46:09.427Z,59.1
2024-05-09T16:47:53.130Z,59.2
2024-05-09T16:49:36.812Z,59.1
2024-05-09T16:51:20.522Z,59
2024-05-09T16:53:04.298Z,59
2024-05-09T16:54:47.912Z,59.1
2024-05-09T16:56:31.623Z,59.3
2024-05-09T16:58:15.334Z,59.3
2024-05-09T16:59:59.027Z,59.4
2024-05-09T17:01:42.815Z,59.5
2024-05-09T17:03:26.425Z,59.5
2024-05-09T17:05:10.145Z,59.5
2024-05-09T17:06:53.841Z,59.5
2024-05-09T17:08:37.595Z,59.5
2024-05-09T17:10:21.244Z,59.4
2024-05-09T17:12:04.962Z,59.4
2024-05-09T17:13:48.670Z,59.5
2024-05-09T17:15:32.368Z,59.5
2024-05-09T17:17:16.097Z,59.6
2024-05-09T17:18:59.775Z,59.7
2024-05-09T17:20:43.481Z,59.7
2024-05-09T17:22:27.177Z,59.8
2024-05-09T17:24:10.869Z,59.9
2024-05-09T17:25:54.584Z,59.9
2024-05-09T17:27:38.275Z,60
2024-05-09T17:29:21.997Z,60.1
2024-05-09T17:31:05.860Z,60.3
2024-05-09T17:32:49.393Z,61
2024-05-09T17:34:34.455Z,62
2024-05-09T17:36:16.961Z,62
2024-05-09T17:38:00.552Z,63
2024-05-09T17:39:44.199Z,63.8
2024-05-09T17:41:27.913Z,64.7
2024-05-09T17:43:11.725Z,65.5
2024-05-09T17:44:55.421Z,65.9
2024-05-09T17:46:39.057Z,66.5
2024-05-09T17:48:22.867Z,66.8
2024-05-09T17:50:06.439Z,67.1
2024-05-09T17:53:33.942Z,66.8
2024-05-09T17:55:17.515Z,66.7
2024-05-09T17:57:01.242Z,67.3
2024-05-09T17:58:45.039Z,67.4
2024-05-09T18:00:28.619Z,66.9
2024-05-09T18:02:12.323Z,66.1
2024-05-09T18:03:56.176Z,65.9
2024-05-09T18:05:39.861Z,65.8
2024-05-09T18:07:23.458Z,65.7
2024-05-09T18:09:08.077Z,65.7
2024-05-09T18:10:50.912Z,65.6
2024-05-09T18:12:34.577Z,65.4
2024-05-09T18:14:18.260Z,65.4
2024-05-09T18:16:01.956Z,65.3
2024-05-09T18:17:45.667Z,65.2
2024-05-09T18:19:29.453Z,65
2024-05-09T18:21:13.174Z,64.8
2024-05-09T18:22:56.793Z,64.9
2024-05-09T18:24:40.490Z,64.9
2024-05-09T18:26:24.190Z,64.9
2024-05-09T18:28:07.911Z,64.9
2024-05-09T18:29:51.605Z,64.8
2024-05-09T18:31:35.290Z,64.8
2024-05-09T18:33:19.058Z,64.7
2024-05-09T18:35:02.700Z,64.8
2024-05-09T18:36:46.463Z,64.7
2024-05-09T18:38:30.097Z,64.8
2024-05-09T18:40:13.781Z,64.8
2024-05-09T18:41:57.507Z,64.9
2024-05-09T18:43:42.130Z,64.8
2024-05-09T18:45:24.893Z,64.8
2024-05-09T18:47:08.608Z,64.8
2024-05-09T18:48:52.424Z,64.8
2024-05-09T18:50:36.022Z,64.7
2024-05-09T18:52:19.717Z,64.7
2024-05-09T18:54:03.412Z,64.8
2024-05-09T18:55:47.193Z,64.8
2024-05-09T18:57:30.931Z,64.9
2024-05-09T18:59:14.642Z,64.9
2024-05-09T19:00:58.270Z,64.9
2024-05-09T19:02:41.920Z,64.9
2024-05-09T19:04:25.693Z,65
2024-05-09T19:06:09.336Z,65
2024-05-09T19:07:53.040Z,64.9
2024-05-09T19:09:36.720Z,64.9
2024-05-09T19:11:20.651Z,65
2024-05-09T19:13:04.151Z,65
2024-05-09T19:14:48.034Z,65
2024-05-09T19:16:31.541Z,65
2024-05-09T19:18:15.323Z,65
2024-05-09T19:19:58.950Z,65.1
2024-05-09T19:21:42.634Z,65.1
2024-05-09T19:23:26.563Z,65.2
2024-05-09T19:25:10.055Z,65.2
2024-05-09T19:26:53.758Z,65.1
2024-05-09T19:28:37.470Z,65.1
2024-05-09T19:30:21.151Z,65.1
2024-05-09T19:32:04.973Z,65.1
2024-05-09T19:33:48.583Z,65.1
2024-05-09T19:35:32.338Z,65.1
2024-05-09T19:37:15.949Z,65.1
2024-05-09T19:38:59.708Z,65
2024-05-09T19:40:43.376Z,65
2024-05-09T19:42:27.120Z,65.1
2024-05-09T19:44:10.768Z,65.1
2024-05-09T19:45:54.478Z,65.1
2024-05-09T19:47:38.176Z,65.1
2024-05-09T19:49:21.863Z,65
2024-05-09T19:51:05.555Z,65
2024-05-09T19:52:49.268Z,65
2024-05-09T19:54:33.074Z,65
2024-05-09T19:56:16.692Z,65
2024-05-09T19:58:00.385Z,65
2024-05-09T19:59:44.088Z,64.9
2024-05-09T20:01:27.784Z,64.9
2024-05-09T20:03:11.506Z,64.9
2024-05-09T20:04:55.203Z,64.9
2024-05-09T20:06:38.900Z,65.1
2024-05-09T20:08:22.599Z,65.1
2024-05-09T20:10:06.311Z,65
2024-05-09T20:11:49.982Z,65
2024-05-09T20:13:33.704Z,64.9
2024-05-09T20:15:17.391Z,64.9
2024-05-09T20:17:01.179Z,64.9
2024-05-09T20:18:44.796Z,64.8
2024-05-09T20:20:28.499Z,64.8
2024-05-09T20:22:12.262Z,64.8
2024-05-09T20:23:55.908Z,64.8
2024-05-09T20:25:39.659Z,64.8
2024-05-09T20:27:23.305Z,64.7
2024-05-09T20:29:07.004Z,64.8
2024-05-09T20:30:50.769Z,64.7
2024-05-09T20:32:34.437Z,64.7
2024-05-09T20:34:18.103Z,64.7
2024-05-09T20:36:01.840Z,64.6
2024-05-09T20:37:45.506Z,64.5
2024-05-09T20:39:29.223Z,64.5
2024-05-09T20:41:12.906Z,64.5
2024-05-09T20:42:56.669Z,64.5
2024-05-09T20:44:40.318Z,64.5
2024-05-09T20:46:24.259Z,64.4
2024-05-09T20:48:07.765Z,64.5
2024-05-09T20:49:51.436Z,64.4
2024-05-09T20:53:18.809Z,64.4
2024-05-09T20:55:02.541Z,64.4
2024-05-09T20:56:46.218Z,64.4
2024-05-09T20:58:29.922Z,64.3
2024-05-09T21:00:13.632Z,64.3
2024-05-09T21:01:57.335Z,64.3
2024-05-09T21:03:41.041Z,64.3
2024-05-09T21:05:24.737Z,64.3
2024-05-09T21:07:08.866Z,64.3
2024-05-09T21:08:52.408Z,64.3
2024-05-09T21:10:36.116Z,64.2
2024-05-09T21:12:19.767Z,64.2
2024-05-09T21:14:03.278Z,64.2
2024-05-09T21:15:47.244Z,64.1
2024-05-09T21:17:30.653Z,64.2
2024-05-09T21:19:14.362Z,64.2
2024-05-09T21:20:59.284Z,64.2
2024-05-09T21:22:41.816Z,64.2
2024-05-09T21:24:25.800Z,64.2
2024-05-09T21:26:09.456Z,64.3
2024-05-09T21:27:52.940Z,64.3
2024-05-09T21:29:36.584Z,64.3
2024-05-09T21:31:20.545Z,64.3
2024-05-09T21:33:03.974Z,64.2
2024-05-09T21:34:47.672Z,64.2
2024-05-09T21:36:31.395Z,64.2
2024-05-09T21:38:15.209Z,64.1
2024-05-09T21:39:58.780Z,64.1
2024-05-09T21:41:42.535Z,64.1
2024-05-09T21:43:26.388Z,64.2
2024-05-09T21:45:09.879Z,64
2024-05-09T21:46:53.646Z,64
2024-05-09T21:48:37.268Z,64
2024-05-09T21:50:21.009Z,63.8
2024-05-09T21:52:04.724Z,63.6
2024-05-09T21:53:48.492Z,63.5
2024-05-09T21:55:33.190Z,63.5
2024-05-09T21:57:15.803Z,63.4
2024-05-09T21:58:59.548Z,63.4
2024-05-09T22:00:43.204Z,63.5
2024-05-09T22:02:26.925Z,63.4
2024-05-09T22:04:10.601Z,63.4
2024-05-09T22:05:54.588Z,63.4
2024-05-09T22:07:38.050Z,63.4
2024-05-09T22:09:21.720Z,63.4
2024-05-09T22:11:05.404Z,63.4
2024-05-09T22:14:32.866Z,63.4
2024-05-09T22:16:16.594Z,63.4
2024-05-09T22:18:00.405Z,63.3
2024-05-09T22:19:44.089Z,63.4
2024-05-09T22:21:27.653Z,63.3
2024-05-09T22:23:11.382Z,63.3
2024-05-09T22:24:55.045Z,63.3
2024-05-09T22:26:38.923Z,63.3
2024-05-09T22:28:22.443Z,63.3
2024-05-09T22:30:07.510Z,63.3
2024-05-09T22:33:33.648Z,63.3
2024-05-09T22:35:17.335Z,63.3
2024-05-09T22:37:00.995Z,63.3
2024-05-09T22:38:44.792Z,63.2
2024-05-09T22:40:28.479Z,63.3
2024-05-09T22:42:12.057Z,63.3
2024-05-09T22:43:56.080Z,63.2
2024-05-09T22:45:39.473Z,63.2
2024-05-09T22:47:23.236Z,63.2
2024-05-09T22:49:07.015Z,63.3
2024-05-09T22:50:50.719Z,63.3
2024-05-09T22:52:34.295Z,63.2
2024-05-09T22:54:18.160Z,63.2
2024-05-09T22:56:01.680Z,63.2
2024-05-09T22:57:45.409Z,63.1
2024-05-09T22:59:29.154Z,63.2
2024-05-09T23:01:12.753Z,63.1
2024-05-09T23:02:56.468Z,63.1
2024-05-09T23:04:40.167Z,63.1
2024-05-09T23:06:24.192Z,63.1
2024-05-09T23:08:07.742Z,63.1
2024-05-09T23:09:51.289Z,63.1
2024-05-09T23:11:35.220Z,63.1
2024-05-09T23:13:18.676Z,63.1
2024-05-09T23:15:02.410Z,63
2024-05-09T23:16:46.168Z,63.1
2024-05-09T23:18:29.886Z,63
2024-05-09T23:20:13.540Z,63
2024-05-09T23:21:57.419Z,63
2024-05-09T23:23:40.982Z,63
2024-05-09T23:25:24.594Z,63
2024-05-09T23:27:08.320Z,63
2024-05-09T23:28:52.012Z,62.9
2024-05-09T23:30:35.743Z,63
2024-05-09T23:32:19.523Z,63
2024-05-09T23:34:03.107Z,63
2024-05-09T23:35:46.823Z,62.9
2024-05-09T23:37:30.496Z,62.9
2024-05-09T23:39:14.251Z,63
2024-05-09T23:40:57.947Z,62.8
2024-05-09T23:42:41.605Z,62.9
2024-05-09T23:44:25.326Z,62.9
2024-05-09T23:46:09.161Z,62.9
2024-05-09T23:47:52.751Z,62.8
2024-05-09T23:49:36.531Z,62.9
2024-05-09T23:51:20.106Z,62.8
2024-05-09T23:53:03.848Z,62.8
2024-05-09T23:54:47.516Z,62.8
2024-05-09T23:56:31.292Z,62.8
2024-05-09T23:58:14.946Z,62.8
2024-05-09T23:59:58.629Z,62.8
